sensor_id;sensor_type;location;lat;lon;timestamp;P1;durP1;ratioP1;P2;durP2;ratioP2
11823;SDS011;5969;50.780;7.726;2023-03-20T00:00:44;34.47;;;25.98;;
11823;SDS011;5969;50.780;7.726;2023-03-20T00:03:13;36.72;;;27.33;;
11823;SDS011;5969;50.780;7.726;2023-03-20T00:05:40;45.28;;;30.42;;
11823;SDS011;5969;50.780;7.726;2023-03-20T00:08:07;42.17;;;32.03;;
11823;SDS011;5969;50.780;7.726;2023-03-20T00:10:35;46.60;;;34.40;;
11823;SDS011;5969;50.780;7.726;2023-03-20T00:13:05;49.88;;;33.50;;
11823;SDS011;5969;50.780;7.726;2023-03-20T00:15:38;45.08;;;33.42;;
11823;SDS011;5969;50.780;7.726;2023-03-20T00:18:10;48.50;;;33.72;;
11823;SDS011;5969;50.780;7.726;2023-03-20T00:20:42;49.63;;;35.10;;
11823;SDS011;5969;50.780;7.726;2023-03-20T00:23:09;50.13;;;35.03;;
11823;SDS011;5969;50.780;7.726;2023-03-20T00:25:36;58.53;;;35.75;;
11823;SDS011;5969;50.780;7.726;2023-03-20T00:28:09;61.33;;;39.10;;
11823;SDS011;5969;50.780;7.726;2023-03-20T00:30:55;66.53;;;42.40;;
11823;SDS011;5969;50.780;7.726;2023-03-20T00:33:22;71.80;;;41.33;;
11823;SDS011;5969;50.780;7.726;2023-03-20T00:35:49;73.50;;;40.67;;
11823;SDS011;5969;50.780;7.726;2023-03-20T00:38:15;73.72;;;41.63;;
11823;SDS011;5969;50.780;7.726;2023-03-20T00:40:42;69.40;;;40.85;;
11823;SDS011;5969;50.780;7.726;2023-03-20T00:43:10;70.28;;;42.22;;
11823;SDS011;5969;50.780;7.726;2023-03-20T00:45:40;73.90;;;42.28;;
11823;SDS011;5969;50.780;7.726;2023-03-20T00:48:09;73.00;;;42.38;;
11823;SDS011;5969;50.780;7.726;2023-03-20T00:50:39;67.20;;;39.97;;
11823;SDS011;5969;50.780;7.726;2023-03-20T00:53:08;74.80;;;40.70;;
11823;SDS011;5969;50.780;7.726;2023-03-20T00:55:35;76.00;;;42.38;;
11823;SDS011;5969;50.780;7.726;2023-03-20T00:58:04;71.55;;;40.92;;
11823;SDS011;5969;50.780;7.726;2023-03-20T01:00:41;68.85;;;41.47;;
11823;SDS011;5969;50.780;7.726;2023-03-20T01:03:12;73.47;;;43.35;;
11823;SDS011;5969;50.780;7.726;2023-03-20T01:05:41;67.22;;;39.80;;
11823;SDS011;5969;50.780;7.726;2023-03-20T01:08:10;65.88;;;40.03;;
11823;SDS011;5969;50.780;7.726;2023-03-20T01:10:39;69.43;;;39.05;;
11823;SDS011;5969;50.780;7.726;2023-03-20T01:13:08;68.15;;;40.65;;
11823;SDS011;5969;50.780;7.726;2023-03-20T01:15:42;73.00;;;41.50;;
11823;SDS011;5969;50.780;7.726;2023-03-20T01:18:12;68.82;;;42.10;;
11823;SDS011;5969;50.780;7.726;2023-03-20T01:20:39;67.70;;;39.65;;
11823;SDS011;5969;50.780;7.726;2023-03-20T01:23:06;57.78;;;34.42;;
11823;SDS011;5969;50.780;7.726;2023-03-20T01:25:33;52.47;;;33.63;;
11823;SDS011;5969;50.780;7.726;2023-03-20T01:28:01;47.53;;;31.05;;
11823;SDS011;5969;50.780;7.726;2023-03-20T01:30:29;47.90;;;30.17;;
11823;SDS011;5969;50.780;7.726;2023-03-20T01:32:58;47.88;;;28.98;;
11823;SDS011;5969;50.780;7.726;2023-03-20T01:35:27;48.25;;;29.45;;
11823;SDS011;5969;50.780;7.726;2023-03-20T01:37:54;42.42;;;27.65;;
11823;SDS011;5969;50.780;7.726;2023-03-20T01:43:14;42.33;;;28.50;;
11823;SDS011;5969;50.780;7.726;2023-03-20T01:45:44;46.15;;;29.58;;
11823;SDS011;5969;50.780;7.726;2023-03-20T01:48:18;44.53;;;28.85;;
11823;SDS011;5969;50.780;7.726;2023-03-20T01:50:47;44.75;;;30.08;;
11823;SDS011;5969;50.780;7.726;2023-03-20T01:53:15;43.17;;;30.08;;
11823;SDS011;5969;50.780;7.726;2023-03-20T01:55:55;44.95;;;30.80;;
11823;SDS011;5969;50.780;7.726;2023-03-20T01:58:25;42.58;;;30.90;;
11823;SDS011;5969;50.780;7.726;2023-03-20T02:00:55;51.75;;;30.63;;
11823;SDS011;5969;50.780;7.726;2023-03-20T02:03:22;47.33;;;29.70;;
11823;SDS011;5969;50.780;7.726;2023-03-20T02:05:51;45.00;;;31.38;;
11823;SDS011;5969;50.780;7.726;2023-03-20T02:08:21;42.67;;;30.88;;
11823;SDS011;5969;50.780;7.726;2023-03-20T02:10:52;42.35;;;30.02;;
11823;SDS011;5969;50.780;7.726;2023-03-20T02:13:20;44.03;;;31.58;;
11823;SDS011;5969;50.780;7.726;2023-03-20T02:15:55;44.88;;;31.65;;
11823;SDS011;5969;50.780;7.726;2023-03-20T02:18:24;41.95;;;30.98;;
11823;SDS011;5969;50.780;7.726;2023-03-20T02:21:09;37.53;;;29.58;;
11823;SDS011;5969;50.780;7.726;2023-03-20T02:24:13;42.58;;;30.90;;
11823;SDS011;5969;50.780;7.726;2023-03-20T02:27:05;44.85;;;30.00;;
11823;SDS011;5969;50.780;7.726;2023-03-20T02:29:42;40.80;;;30.20;;
11823;SDS011;5969;50.780;7.726;2023-03-20T02:32:40;43.95;;;29.70;;
11823;SDS011;5969;50.780;7.726;2023-03-20T02:35:42;39.10;;;28.98;;
11823;SDS011;5969;50.780;7.726;2023-03-20T02:38:47;44.90;;;31.50;;
11823;SDS011;5969;50.780;7.726;2023-03-20T02:41:24;44.60;;;29.63;;
11823;SDS011;5969;50.780;7.726;2023-03-20T02:43:58;41.65;;;29.15;;
11823;SDS011;5969;50.780;7.726;2023-03-20T02:46:33;42.60;;;30.60;;
11823;SDS011;5969;50.780;7.726;2023-03-20T02:49:08;43.90;;;31.17;;
11823;SDS011;5969;50.780;7.726;2023-03-20T02:51:46;41.72;;;29.55;;
11823;SDS011;5969;50.780;7.726;2023-03-20T02:56:58;44.85;;;29.63;;
11823;SDS011;5969;50.780;7.726;2023-03-20T02:59:29;46.35;;;30.23;;
11823;SDS011;5969;50.780;7.726;2023-03-20T03:02:03;44.15;;;30.65;;
11823;SDS011;5969;50.780;7.726;2023-03-20T03:04:33;39.38;;;28.67;;
11823;SDS011;5969;50.780;7.726;2023-03-20T03:07:03;40.92;;;29.05;;
11823;SDS011;5969;50.780;7.726;2023-03-20T03:09:35;41.15;;;28.77;;
11823;SDS011;5969;50.780;7.726;2023-03-20T03:12:06;36.15;;;27.17;;
11823;SDS011;5969;50.780;7.726;2023-03-20T03:14:38;39.60;;;29.45;;
11823;SDS011;5969;50.780;7.726;2023-03-20T03:17:09;41.33;;;29.05;;
11823;SDS011;5969;50.780;7.726;2023-03-20T03:19:38;36.67;;;27.80;;
11823;SDS011;5969;50.780;7.726;2023-03-20T03:22:09;37.75;;;27.75;;
11823;SDS011;5969;50.780;7.726;2023-03-20T03:24:38;35.05;;;27.05;;
11823;SDS011;5969;50.780;7.726;2023-03-20T03:27:12;40.10;;;28.27;;
11823;SDS011;5969;50.780;7.726;2023-03-20T03:29:45;33.80;;;26.58;;
11823;SDS011;5969;50.780;7.726;2023-03-20T03:32:19;39.80;;;28.45;;
11823;SDS011;5969;50.780;7.726;2023-03-20T03:34:50;36.35;;;28.40;;
11823;SDS011;5969;50.780;7.726;2023-03-20T03:37:18;37.60;;;27.83;;
11823;SDS011;5969;50.780;7.726;2023-03-20T03:40:12;36.55;;;26.23;;
11823;SDS011;5969;50.780;7.726;2023-03-20T03:42:47;39.28;;;28.42;;
11823;SDS011;5969;50.780;7.726;2023-03-20T03:45:20;37.15;;;26.50;;
11823;SDS011;5969;50.780;7.726;2023-03-20T03:47:55;40.33;;;28.52;;
11823;SDS011;5969;50.780;7.726;2023-03-20T03:50:27;36.15;;;26.25;;
11823;SDS011;5969;50.780;7.726;2023-03-20T03:52:57;37.20;;;27.60;;
11823;SDS011;5969;50.780;7.726;2023-03-20T03:55:28;37.67;;;27.95;;
11823;SDS011;5969;50.780;7.726;2023-03-20T03:58:00;41.10;;;28.45;;
11823;SDS011;5969;50.780;7.726;2023-03-20T04:00:29;36.42;;;26.85;;
11823;SDS011;5969;50.780;7.726;2023-03-20T04:02:58;38.67;;;28.55;;
11823;SDS011;5969;50.780;7.726;2023-03-20T04:05:26;38.50;;;29.17;;
11823;SDS011;5969;50.780;7.726;2023-03-20T04:07:57;37.15;;;27.13;;
11823;SDS011;5969;50.780;7.726;2023-03-20T04:10:25;38.53;;;28.80;;
11823;SDS011;5969;50.780;7.726;2023-03-20T04:12:53;39.95;;;28.90;;
11823;SDS011;5969;50.780;7.726;2023-03-20T04:15:20;38.47;;;28.23;;
11823;SDS011;5969;50.780;7.726;2023-03-20T04:17:47;36.65;;;28.35;;
11823;SDS011;5969;50.780;7.726;2023-03-20T04:20:14;37.13;;;26.90;;
11823;SDS011;5969;50.780;7.726;2023-03-20T04:22:41;38.75;;;28.90;;
11823;SDS011;5969;50.780;7.726;2023-03-20T04:25:09;37.83;;;27.92;;
11823;SDS011;5969;50.780;7.726;2023-03-20T04:27:41;35.92;;;27.85;;
11823;SDS011;5969;50.780;7.726;2023-03-20T04:30:10;36.95;;;27.92;;
11823;SDS011;5969;50.780;7.726;2023-03-20T04:32:38;39.17;;;29.85;;
11823;SDS011;5969;50.780;7.726;2023-03-20T04:35:05;38.78;;;28.63;;
11823;SDS011;5969;50.780;7.726;2023-03-20T04:37:32;37.95;;;28.38;;
11823;SDS011;5969;50.780;7.726;2023-03-20T04:39:59;39.17;;;28.45;;
11823;SDS011;5969;50.780;7.726;2023-03-20T04:42:26;38.17;;;29.13;;
11823;SDS011;5969;50.780;7.726;2023-03-20T04:44:53;36.67;;;27.83;;
11823;SDS011;5969;50.780;7.726;2023-03-20T04:47:21;40.50;;;28.05;;
11823;SDS011;5969;50.780;7.726;2023-03-20T04:49:48;37.33;;;28.52;;
11823;SDS011;5969;50.780;7.726;2023-03-20T04:52:15;37.55;;;28.27;;
11823;SDS011;5969;50.780;7.726;2023-03-20T04:54:49;34.90;;;26.02;;
11823;SDS011;5969;50.780;7.726;2023-03-20T04:57:16;37.25;;;27.10;;
11823;SDS011;5969;50.780;7.726;2023-03-20T04:59:42;35.53;;;27.35;;
11823;SDS011;5969;50.780;7.726;2023-03-20T05:02:09;36.60;;;28.00;;
11823;SDS011;5969;50.780;7.726;2023-03-20T05:04:40;37.78;;;28.23;;
11823;SDS011;5969;50.780;7.726;2023-03-20T05:07:07;39.90;;;28.75;;
11823;SDS011;5969;50.780;7.726;2023-03-20T05:09:34;43.08;;;29.27;;
11823;SDS011;5969;50.780;7.726;2023-03-20T05:12:00;36.42;;;26.83;;
11823;SDS011;5969;50.780;7.726;2023-03-20T05:14:28;39.88;;;28.98;;
11823;SDS011;5969;50.780;7.726;2023-03-20T05:16:55;36.67;;;26.90;;
11823;SDS011;5969;50.780;7.726;2023-03-20T05:19:22;34.13;;;26.60;;
11823;SDS011;5969;50.780;7.726;2023-03-20T05:21:51;33.70;;;26.30;;
11823;SDS011;5969;50.780;7.726;2023-03-20T05:24:18;38.45;;;27.10;;
11823;SDS011;5969;50.780;7.726;2023-03-20T05:26:58;38.67;;;27.30;;
11823;SDS011;5969;50.780;7.726;2023-03-20T05:29:25;35.20;;;25.98;;
11823;SDS011;5969;50.780;7.726;2023-03-20T05:31:52;39.15;;;27.08;;
11823;SDS011;5969;50.780;7.726;2023-03-20T05:34:19;35.28;;;26.55;;
11823;SDS011;5969;50.780;7.726;2023-03-20T05:36:46;37.80;;;26.23;;
11823;SDS011;5969;50.780;7.726;2023-03-20T05:39:14;32.80;;;25.23;;
11823;SDS011;5969;50.780;7.726;2023-03-20T05:41:41;34.05;;;24.85;;
11823;SDS011;5969;50.780;7.726;2023-03-20T05:44:08;32.42;;;25.58;;
11823;SDS011;5969;50.780;7.726;2023-03-20T05:46:35;35.35;;;26.00;;
11823;SDS011;5969;50.780;7.726;2023-03-20T05:49:02;34.15;;;25.98;;
11823;SDS011;5969;50.780;7.726;2023-03-20T05:51:28;33.63;;;24.60;;
11823;SDS011;5969;50.780;7.726;2023-03-20T05:54:00;34.92;;;25.23;;
11823;SDS011;5969;50.780;7.726;2023-03-20T05:56:29;34.00;;;25.35;;
11823;SDS011;5969;50.780;7.726;2023-03-20T05:58:56;34.05;;;24.83;;
11823;SDS011;5969;50.780;7.726;2023-03-20T06:01:22;34.70;;;25.52;;
11823;SDS011;5969;50.780;7.726;2023-03-20T06:06:27;31.60;;;24.10;;
11823;SDS011;5969;50.780;7.726;2023-03-20T06:08:54;35.10;;;25.90;;
11823;SDS011;5969;50.780;7.726;2023-03-20T06:11:21;36.53;;;25.05;;
11823;SDS011;5969;50.780;7.726;2023-03-20T06:13:49;34.13;;;25.63;;
11823;SDS011;5969;50.780;7.726;2023-03-20T06:16:18;31.30;;;24.15;;
11823;SDS011;5969;50.780;7.726;2023-03-20T06:18:45;37.05;;;24.67;;
11823;SDS011;5969;50.780;7.726;2023-03-20T06:21:13;33.60;;;24.13;;
11823;SDS011;5969;50.780;7.726;2023-03-20T06:23:40;34.40;;;24.50;;
11823;SDS011;5969;50.780;7.726;2023-03-20T06:26:06;31.73;;;24.35;;
11823;SDS011;5969;50.780;7.726;2023-03-20T06:28:33;30.92;;;22.90;;
11823;SDS011;5969;50.780;7.726;2023-03-20T06:31:02;34.67;;;22.92;;
11823;SDS011;5969;50.780;7.726;2023-03-20T06:33:29;31.02;;;23.90;;
11823;SDS011;5969;50.780;7.726;2023-03-20T06:35:56;34.00;;;24.08;;
11823;SDS011;5969;50.780;7.726;2023-03-20T06:38:24;33.20;;;25.08;;
11823;SDS011;5969;50.780;7.726;2023-03-20T06:40:51;29.55;;;22.60;;
11823;SDS011;5969;50.780;7.726;2023-03-20T06:43:18;29.25;;;22.45;;
11823;SDS011;5969;50.780;7.726;2023-03-20T06:45:45;34.35;;;24.08;;
11823;SDS011;5969;50.780;7.726;2023-03-20T06:48:13;32.33;;;23.88;;
11823;SDS011;5969;50.780;7.726;2023-03-20T06:50:45;31.90;;;23.05;;
11823;SDS011;5969;50.780;7.726;2023-03-20T06:53:13;31.63;;;22.55;;
11823;SDS011;5969;50.780;7.726;2023-03-20T06:55:40;29.92;;;22.65;;
11823;SDS011;5969;50.780;7.726;2023-03-20T06:58:07;29.02;;;20.75;;
11823;SDS011;5969;50.780;7.726;2023-03-20T07:00:34;29.85;;;21.42;;
11823;SDS011;5969;50.780;7.726;2023-03-20T07:03:01;31.02;;;23.00;;
11823;SDS011;5969;50.780;7.726;2023-03-20T07:05:32;32.38;;;23.10;;
11823;SDS011;5969;50.780;7.726;2023-03-20T07:07:59;27.95;;;21.85;;
11823;SDS011;5969;50.780;7.726;2023-03-20T07:10:26;30.02;;;23.63;;
11823;SDS011;5969;50.780;7.726;2023-03-20T07:12:53;30.25;;;22.40;;
11823;SDS011;5969;50.780;7.726;2023-03-20T07:15:20;29.55;;;22.77;;
11823;SDS011;5969;50.780;7.726;2023-03-20T07:17:48;27.38;;;20.33;;
11823;SDS011;5969;50.780;7.726;2023-03-20T07:20:15;28.63;;;21.25;;
11823;SDS011;5969;50.780;7.726;2023-03-20T07:22:46;25.52;;;20.30;;
11823;SDS011;5969;50.780;7.726;2023-03-20T07:25:13;25.80;;;19.77;;
11823;SDS011;5969;50.780;7.726;2023-03-20T07:27:49;23.48;;;19.55;;
11823;SDS011;5969;50.780;7.726;2023-03-20T07:32:52;22.83;;;17.35;;
11823;SDS011;5969;50.780;7.726;2023-03-20T07:35:20;20.65;;;16.58;;
11823;SDS011;5969;50.780;7.726;2023-03-20T07:37:48;24.70;;;18.00;;
11823;SDS011;5969;50.780;7.726;2023-03-20T07:40:15;23.48;;;17.83;;
11823;SDS011;5969;50.780;7.726;2023-03-20T07:42:43;29.77;;;22.55;;
11823;SDS011;5969;50.780;7.726;2023-03-20T07:45:11;23.77;;;18.63;;
11823;SDS011;5969;50.780;7.726;2023-03-20T07:47:40;20.77;;;16.52;;
11823;SDS011;5969;50.780;7.726;2023-03-20T07:50:08;22.02;;;16.80;;
11823;SDS011;5969;50.780;7.726;2023-03-20T07:52:36;22.35;;;16.13;;
11823;SDS011;5969;50.780;7.726;2023-03-20T07:55:06;20.95;;;16.85;;
11823;SDS011;5969;50.780;7.726;2023-03-20T07:57:33;23.80;;;17.27;;
11823;SDS011;5969;50.780;7.726;2023-03-20T08:00:03;24.02;;;16.90;;
11823;SDS011;5969;50.780;7.726;2023-03-20T08:02:32;22.33;;;16.90;;
11823;SDS011;5969;50.780;7.726;2023-03-20T08:04:59;22.17;;;17.30;;
11823;SDS011;5969;50.780;7.726;2023-03-20T08:07:26;21.90;;;16.05;;
11823;SDS011;5969;50.780;7.726;2023-03-20T08:09:54;20.08;;;16.33;;
11823;SDS011;5969;50.780;7.726;2023-03-20T08:12:22;21.00;;;16.17;;
11823;SDS011;5969;50.780;7.726;2023-03-20T08:14:51;21.17;;;16.52;;
11823;SDS011;5969;50.780;7.726;2023-03-20T08:17:18;20.38;;;16.65;;
11823;SDS011;5969;50.780;7.726;2023-03-20T08:19:47;18.65;;;15.77;;
11823;SDS011;5969;50.780;7.726;2023-03-20T08:22:14;18.10;;;14.40;;
11823;SDS011;5969;50.780;7.726;2023-03-20T08:24:41;19.67;;;13.77;;
11823;SDS011;5969;50.780;7.726;2023-03-20T08:27:15;15.27;;;12.32;;
11823;SDS011;5969;50.780;7.726;2023-03-20T08:29:43;18.08;;;12.80;;
11823;SDS011;5969;50.780;7.726;2023-03-20T08:32:10;16.40;;;12.50;;
11823;SDS011;5969;50.780;7.726;2023-03-20T08:34:37;15.80;;;12.05;;
11823;SDS011;5969;50.780;7.726;2023-03-20T08:39:37;15.55;;;12.43;;
11823;SDS011;5969;50.780;7.726;2023-03-20T08:42:06;18.48;;;13.43;;
11823;SDS011;5969;50.780;7.726;2023-03-20T08:44:33;18.67;;;14.45;;
11823;SDS011;5969;50.780;7.726;2023-03-20T08:47:01;19.38;;;14.15;;
11823;SDS011;5969;50.780;7.726;2023-03-20T08:49:36;17.55;;;12.95;;
11823;SDS011;5969;50.780;7.726;2023-03-20T08:52:04;16.17;;;12.90;;
11823;SDS011;5969;50.780;7.726;2023-03-20T08:54:32;16.83;;;13.38;;
11823;SDS011;5969;50.780;7.726;2023-03-20T08:57:03;19.48;;;14.07;;
11823;SDS011;5969;50.780;7.726;2023-03-20T08:59:48;17.38;;;13.95;;
11823;SDS011;5969;50.780;7.726;2023-03-20T09:02:16;18.10;;;13.82;;
11823;SDS011;5969;50.780;7.726;2023-03-20T09:04:53;17.38;;;13.55;;
11823;SDS011;5969;50.780;7.726;2023-03-20T09:07:24;14.90;;;12.43;;
11823;SDS011;5969;50.780;7.726;2023-03-20T09:09:51;17.55;;;14.30;;
11823;SDS011;5969;50.780;7.726;2023-03-20T09:12:17;20.58;;;15.73;;
11823;SDS011;5969;50.780;7.726;2023-03-20T09:14:44;15.02;;;12.45;;
11823;SDS011;5969;50.780;7.726;2023-03-20T09:17:11;13.70;;;11.70;;
11823;SDS011;5969;50.780;7.726;2023-03-20T09:19:39;15.30;;;12.90;;
11823;SDS011;5969;50.780;7.726;2023-03-20T09:22:08;12.15;;;10.82;;
11823;SDS011;5969;50.780;7.726;2023-03-20T09:24:37;13.13;;;11.25;;
11823;SDS011;5969;50.780;7.726;2023-03-20T09:27:11;13.13;;;11.18;;
11823;SDS011;5969;50.780;7.726;2023-03-20T09:29:44;14.82;;;11.30;;
11823;SDS011;5969;50.780;7.726;2023-03-20T09:32:14;13.07;;;11.77;;
11823;SDS011;5969;50.780;7.726;2023-03-20T09:34:51;12.50;;;10.63;;
11823;SDS011;5969;50.780;7.726;2023-03-20T09:37:18;13.10;;;11.45;;
11823;SDS011;5969;50.780;7.726;2023-03-20T09:39:45;18.10;;;11.55;;
11823;SDS011;5969;50.780;7.726;2023-03-20T09:42:30;16.23;;;11.70;;
11823;SDS011;5969;50.780;7.726;2023-03-20T09:45:07;15.80;;;12.55;;
11823;SDS011;5969;50.780;7.726;2023-03-20T09:47:46;21.77;;;16.42;;
11823;SDS011;5969;50.780;7.726;2023-03-20T09:50:25;14.63;;;11.13;;
11823;SDS011;5969;50.780;7.726;2023-03-20T09:53:09;10.13;;;8.60;;
11823;SDS011;5969;50.780;7.726;2023-03-20T09:55:40;10.50;;;9.07;;
11823;SDS011;5969;50.780;7.726;2023-03-20T09:58:17;11.02;;;8.77;;
11823;SDS011;5969;50.780;7.726;2023-03-20T10:03:34;9.75;;;7.53;;
11823;SDS011;5969;50.780;7.726;2023-03-20T10:06:23;11.35;;;10.18;;
11823;SDS011;5969;50.780;7.726;2023-03-20T10:08:51;9.60;;;6.80;;
11823;SDS011;5969;50.780;7.726;2023-03-20T10:11:27;8.55;;;6.13;;
11823;SDS011;5969;50.780;7.726;2023-03-20T10:14:12;8.27;;;6.50;;
11823;SDS011;5969;50.780;7.726;2023-03-20T10:17:02;8.27;;;6.00;;
11823;SDS011;5969;50.780;7.726;2023-03-20T10:19:41;8.32;;;7.13;;
11823;SDS011;5969;50.780;7.726;2023-03-20T10:22:13;6.35;;;5.40;;
11823;SDS011;5969;50.780;7.726;2023-03-20T10:24:53;7.35;;;6.10;;
11823;SDS011;5969;50.780;7.726;2023-03-20T10:27:24;7.22;;;6.18;;
11823;SDS011;5969;50.780;7.726;2023-03-20T10:29:59;7.10;;;5.78;;
11823;SDS011;5969;50.780;7.726;2023-03-20T10:32:45;6.72;;;5.78;;
11823;SDS011;5969;50.780;7.726;2023-03-20T10:35:21;7.40;;;6.05;;
11823;SDS011;5969;50.780;7.726;2023-03-20T10:37:57;5.70;;;5.10;;
11823;SDS011;5969;50.780;7.726;2023-03-20T10:43:25;9.15;;;7.55;;
11823;SDS011;5969;50.780;7.726;2023-03-20T10:45:58;7.97;;;6.60;;
11823;SDS011;5969;50.780;7.726;2023-03-20T10:48:29;6.75;;;4.97;;
11823;SDS011;5969;50.780;7.726;2023-03-20T10:51:03;6.30;;;4.68;;
11823;SDS011;5969;50.780;7.726;2023-03-20T10:53:39;6.75;;;4.85;;
11823;SDS011;5969;50.780;7.726;2023-03-20T10:56:12;5.57;;;4.32;;
11823;SDS011;5969;50.780;7.726;2023-03-20T10:58:56;5.38;;;4.75;;
11823;SDS011;5969;50.780;7.726;2023-03-20T11:01:32;6.53;;;4.57;;
11823;SDS011;5969;50.780;7.726;2023-03-20T11:04:00;6.18;;;4.55;;
11823;SDS011;5969;50.780;7.726;2023-03-20T11:06:27;4.68;;;4.28;;
11823;SDS011;5969;50.780;7.726;2023-03-20T11:09:09;5.38;;;4.07;;
11823;SDS011;5969;50.780;7.726;2023-03-20T11:11:38;5.63;;;4.72;;
11823;SDS011;5969;50.780;7.726;2023-03-20T11:14:08;5.13;;;4.35;;
11823;SDS011;5969;50.780;7.726;2023-03-20T11:16:42;4.97;;;3.60;;
11823;SDS011;5969;50.780;7.726;2023-03-20T11:21:47;5.40;;;3.78;;
11823;SDS011;5969;50.780;7.726;2023-03-20T11:24:24;4.68;;;3.45;;
11823;SDS011;5969;50.780;7.726;2023-03-20T11:26:52;4.05;;;3.33;;
11823;SDS011;5969;50.780;7.726;2023-03-20T11:29:28;4.93;;;3.25;;
11823;SDS011;5969;50.780;7.726;2023-03-20T11:32:02;5.57;;;3.33;;
11823;SDS011;5969;50.780;7.726;2023-03-20T11:34:37;3.90;;;2.72;;
11823;SDS011;5969;50.780;7.726;2023-03-20T11:37:20;4.82;;;3.80;;
11823;SDS011;5969;50.780;7.726;2023-03-20T11:39:57;4.30;;;3.55;;
11823;SDS011;5969;50.780;7.726;2023-03-20T11:42:27;5.70;;;3.90;;
11823;SDS011;5969;50.780;7.726;2023-03-20T11:44:56;6.35;;;3.92;;
11823;SDS011;5969;50.780;7.726;2023-03-20T11:47:35;5.32;;;3.42;;
11823;SDS011;5969;50.780;7.726;2023-03-20T11:50:02;5.60;;;3.50;;
11823;SDS011;5969;50.780;7.726;2023-03-20T11:52:31;4.55;;;3.17;;
11823;SDS011;5969;50.780;7.726;2023-03-20T11:55:02;4.78;;;3.80;;
11823;SDS011;5969;50.780;7.726;2023-03-20T11:57:33;4.03;;;3.63;;
11823;SDS011;5969;50.780;7.726;2023-03-20T12:00:05;7.70;;;3.47;;
11823;SDS011;5969;50.780;7.726;2023-03-20T12:02:43;6.93;;;6.18;;
11823;SDS011;5969;50.780;7.726;2023-03-20T12:05:28;5.90;;;3.60;;
11823;SDS011;5969;50.780;7.726;2023-03-20T12:08:11;4.93;;;3.65;;
11823;SDS011;5969;50.780;7.726;2023-03-20T12:10:45;4.97;;;3.97;;
11823;SDS011;5969;50.780;7.726;2023-03-20T12:13:19;6.70;;;3.90;;
11823;SDS011;5969;50.780;7.726;2023-03-20T12:15:51;6.38;;;3.80;;
11823;SDS011;5969;50.780;7.726;2023-03-20T12:18:24;4.85;;;3.97;;
11823;SDS011;5969;50.780;7.726;2023-03-20T12:20:58;4.25;;;3.47;;
11823;SDS011;5969;50.780;7.726;2023-03-20T12:23:33;5.35;;;3.58;;
11823;SDS011;5969;50.780;7.726;2023-03-20T12:26:08;4.20;;;3.80;;
11823;SDS011;5969;50.780;7.726;2023-03-20T12:28:43;5.63;;;3.72;;
11823;SDS011;5969;50.780;7.726;2023-03-20T12:31:20;5.78;;;3.55;;
11823;SDS011;5969;50.780;7.726;2023-03-20T12:33:51;5.85;;;3.65;;
11823;SDS011;5969;50.780;7.726;2023-03-20T12:36:31;4.57;;;3.08;;
11823;SDS011;5969;50.780;7.726;2023-03-20T12:39:03;5.30;;;3.10;;
11823;SDS011;5969;50.780;7.726;2023-03-20T12:41:36;5.07;;;3.60;;
11823;SDS011;5969;50.780;7.726;2023-03-20T12:44:15;5.63;;;4.20;;
11823;SDS011;5969;50.780;7.726;2023-03-20T12:46:56;5.72;;;3.92;;
11823;SDS011;5969;50.780;7.726;2023-03-20T12:49:39;5.10;;;3.70;;
11823;SDS011;5969;50.780;7.726;2023-03-20T12:52:15;5.68;;;3.90;;
11823;SDS011;5969;50.780;7.726;2023-03-20T12:54:56;4.85;;;3.25;;
11823;SDS011;5969;50.780;7.726;2023-03-20T12:57:56;5.90;;;4.70;;
11823;SDS011;5969;50.780;7.726;2023-03-20T13:00:31;5.03;;;3.92;;
11823;SDS011;5969;50.780;7.726;2023-03-20T13:03:09;5.68;;;3.72;;
11823;SDS011;5969;50.780;7.726;2023-03-20T13:06:02;6.40;;;4.13;;
11823;SDS011;5969;50.780;7.726;2023-03-20T13:08:44;5.30;;;4.10;;
11823;SDS011;5969;50.780;7.726;2023-03-20T14:07:25;4.25;;;3.00;;
11823;SDS011;5969;50.780;7.726;2023-03-20T14:09:54;5.88;;;4.43;;
11823;SDS011;5969;50.780;7.726;2023-03-20T14:12:22;4.85;;;3.70;;
11823;SDS011;5969;50.780;7.726;2023-03-20T14:14:52;4.40;;;3.50;;
11823;SDS011;5969;50.780;7.726;2023-03-20T14:17:23;6.60;;;4.60;;
11823;SDS011;5969;50.780;7.726;2023-03-20T14:19:54;4.43;;;3.33;;
11823;SDS011;5969;50.780;7.726;2023-03-20T14:22:25;4.38;;;3.40;;
11823;SDS011;5969;50.780;7.726;2023-03-20T14:24:55;4.22;;;3.28;;
11823;SDS011;5969;50.780;7.726;2023-03-20T14:27:25;5.70;;;4.47;;
11823;SDS011;5969;50.780;7.726;2023-03-20T14:29:56;7.00;;;3.42;;
11823;SDS011;5969;50.780;7.726;2023-03-20T14:33:04;6.05;;;5.45;;
11823;SDS011;5969;50.780;7.726;2023-03-20T14:35:39;5.03;;;3.53;;
11823;SDS011;5969;50.780;7.726;2023-03-20T14:38:19;4.88;;;3.45;;
11823;SDS011;5969;50.780;7.726;2023-03-20T14:40:52;5.72;;;3.13;;
11823;SDS011;5969;50.780;7.726;2023-03-20T14:43:50;6.13;;;4.18;;
11823;SDS011;5969;50.780;7.726;2023-03-20T14:46:30;5.18;;;3.28;;
11823;SDS011;5969;50.780;7.726;2023-03-20T14:55:29;4.25;;;3.00;;
11823;SDS011;5969;50.780;7.726;2023-03-20T14:58:03;4.72;;;2.90;;
11823;SDS011;5969;50.780;7.726;2023-03-20T15:00:51;5.65;;;2.83;;
11823;SDS011;5969;50.780;7.726;2023-03-20T15:03:17;6.38;;;2.85;;
11823;SDS011;5969;50.780;7.726;2023-03-20T15:05:45;4.22;;;2.83;;
11823;SDS011;5969;50.780;7.726;2023-03-20T15:08:15;6.95;;;2.60;;
11823;SDS011;5969;50.780;7.726;2023-03-20T15:10:46;4.72;;;2.55;;
11823;SDS011;5969;50.780;7.726;2023-03-20T15:13:22;4.25;;;2.47;;
11823;SDS011;5969;50.780;7.726;2023-03-20T15:15:52;3.33;;;2.38;;
11823;SDS011;5969;50.780;7.726;2023-03-20T15:18:23;3.30;;;1.80;;
11823;SDS011;5969;50.780;7.726;2023-03-20T15:20:51;4.68;;;2.15;;
11823;SDS011;5969;50.780;7.726;2023-03-20T15:23:22;3.95;;;2.25;;
11823;SDS011;5969;50.780;7.726;2023-03-20T15:25:50;5.88;;;2.63;;
11823;SDS011;5969;50.780;7.726;2023-03-20T15:28:17;5.10;;;3.40;;
11823;SDS011;5969;50.780;7.726;2023-03-20T15:30:50;7.53;;;3.72;;
11823;SDS011;5969;50.780;7.726;2023-03-20T15:33:25;3.92;;;2.55;;
11823;SDS011;5969;50.780;7.726;2023-03-20T15:35:54;4.28;;;2.15;;
11823;SDS011;5969;50.780;7.726;2023-03-20T15:38:24;5.40;;;2.35;;
11823;SDS011;5969;50.780;7.726;2023-03-20T15:40:55;3.88;;;2.50;;
11823;SDS011;5969;50.780;7.726;2023-03-20T15:43:23;4.32;;;2.28;;
11823;SDS011;5969;50.780;7.726;2023-03-20T15:45:56;4.57;;;2.20;;
11823;SDS011;5969;50.780;7.726;2023-03-20T15:48:24;5.35;;;2.05;;
11823;SDS011;5969;50.780;7.726;2023-03-20T15:50:51;3.80;;;2.00;;
11823;SDS011;5969;50.780;7.726;2023-03-20T15:53:25;4.07;;;2.20;;
11823;SDS011;5969;50.780;7.726;2023-03-20T15:55:56;2.65;;;1.92;;
11823;SDS011;5969;50.780;7.726;2023-03-20T15:58:29;4.72;;;1.77;;
11823;SDS011;5969;50.780;7.726;2023-03-20T16:00:57;2.60;;;1.70;;
11823;SDS011;5969;50.780;7.726;2023-03-20T16:03:28;4.30;;;2.15;;
11823;SDS011;5969;50.780;7.726;2023-03-20T16:05:57;3.08;;;1.70;;
11823;SDS011;5969;50.780;7.726;2023-03-20T16:08:27;5.43;;;1.80;;
11823;SDS011;5969;50.780;7.726;2023-03-20T16:10:57;2.50;;;1.60;;
11823;SDS011;5969;50.780;7.726;2023-03-20T16:13:25;5.15;;;2.13;;
11823;SDS011;5969;50.780;7.726;2023-03-20T16:15:55;4.35;;;1.83;;
11823;SDS011;5969;50.780;7.726;2023-03-20T16:18:22;3.10;;;1.70;;
11823;SDS011;5969;50.780;7.726;2023-03-20T16:20:51;3.42;;;1.92;;
11823;SDS011;5969;50.780;7.726;2023-03-20T16:23:31;3.40;;;1.50;;
11823;SDS011;5969;50.780;7.726;2023-03-20T16:26:05;4.70;;;2.10;;
11823;SDS011;5969;50.780;7.726;2023-03-20T16:28:34;3.45;;;1.63;;
11823;SDS011;5969;50.780;7.726;2023-03-20T16:31:05;5.55;;;2.05;;
11823;SDS011;5969;50.780;7.726;2023-03-20T16:33:41;3.97;;;1.60;;